Sarasota, FL

01:24 PM EDT del 26 Agosto 2016 (GMT -0400)
Amberlea | | Change Station

Alt. 49 ft 27.28 °N, 82.48 °W | Updated 6 minutes ago

Mostly Cloudy
Molto nuvoloso
94.5 °F
Sembra 109 °F
N
4.7
Vento Variabile Vento da Est

Oggi
Massima -- | Minima -- °F
--% Possibilità di precip.
Ieri
Massima -- | Minima -- °F
Precip. -- in
Pressione 29.94 in
Visibilità 10.0 miglia
Nuvole Nubi sparse 3500 ft
Molto nuvoloso 6500 ft
Indice di calore 109 °F
Punto di rugiada 77 °F
Umidità 57%
Piovosità 0.00 in
Spessore del manto nevoso Non disponibile.
7:06 AM 7:56 PM
Luna calante, 33% visible
METAR KSRQ 261653Z 07011KT 10SM SCT035 BKN065 34/24 A2994 RMK AO2 SLP138 T03390239
Pressione 29.94 in
Visibilità 10.0 miglia
Nuvole Nubi sparse 3500 ft
Molto nuvoloso 6500 ft
Indice di calore 109 °F
Punto di rugiada 77 °F
Umidità 57%
Piovosità 0.00 in
Spessore del manto nevoso Non disponibile.
7:06 AM 7:56 PM
Luna calante, 33% visible
METAR KSRQ 261653Z 07011KT 10SM SCT035 BKN065 34/24 A2994 RMK AO2 SLP138 T03390239

10-Day Weather Forecast

Almanac

Astronomia

Aug. 26, 2016 Alba Tramonto
Ora attuale
Crepuscolo civile
Crepuscolo nautico
Crepuscolo astronomico
Luna
Estensione della luce visibile
Lunghezza del giorno
Tomorrow will be .
, % of the Moon is Illuminated

Gli estremi di oggi

State Highs State Lows

Community

WunderPhotos

Upload Photos

1,935,145 foto caricate!

WunderBlog® & News

Nearby

Qualità dell'aria

  Qualità dell'aria Indice AQ Inquinante
Not available.

Profondità neve

Stazione Profondità Altitudine

Attività sismica

Città  Distanza Mag. Data & Ora
Minimo Magnitudo Mostrato è 2.5.

Temperature delle acque costiere

Località Temperatura

Stations

Stazioni meteo nelle vicinanze

Ubicazione della stazione Temp. Raffreddamento del vento Punto di rugiada Umidità Vento Precip. Alt. Aggiornato Tipo
                   

Watches & Warnings

There are currently no watches in effect.